Time;durP1;ratioP1;P1;durP2;ratioP2;P2;SDS_P1;SDS_P2;PMS_P1;PMS_P2;Temp;Humidity;BMP_temperature;BMP_pressure;BME280_temperature;BME280_humidity;BME280_pressure;Samples;Min_cycle;Max_cycle;Signal;HPM_P1;HPM_P2
2021/08/27 00:00:30;;;;;;;4.30;0.80;;;;;;;13.32;82.79;100600.17;111437;1202;61644;-81
2021/08/27 00:02:57;;;;;;;3.00;1.10;;;;;;;13.32;82.76;100601.60;111428;1202;61068;-80
2021/08/27 00:05:25;;;;;;;1.80;0.90;;;;;;;13.33;82.61;100598.34;111432;1204;61387;-81
2021/08/27 00:07:52;;;;;;;4.60;1.30;;;;;;;13.32;82.78;100602.50;111561;1202;74597;-80
2021/08/27 00:10:18;;;;;;;3.30;1.00;;;;;;;13.31;82.45;100599.04;111429;1197;61711;-79
2021/08/27 00:12:45;;;;;;;6.80;1.40;;;;;;;13.30;82.32;100610.73;111378;1202;72644;-81
2021/08/27 00:15:12;;;;;;;6.80;1.60;;;;;;;13.29;82.15;100599.36;111445;1196;61204;-80
2021/08/27 00:17:38;;;;;;;4.20;1.40;;;;;;;13.27;82.41;100602.31;111534;1196;61015;-80
2021/08/27 00:20:07;;;;;;;6.10;1.00;;;;;;;13.27;82.52;100601.96;111472;1202;61164;-80
2021/08/27 00:22:33;;;;;;;3.50;1.10;;;;;;;13.27;82.57;100601.46;111715;1202;70677;-81
2021/08/27 00:25:00;;;;;;;6.30;1.00;;;;;;;13.26;82.39;100599.45;111393;1202;74419;-84
2021/08/27 00:27:26;;;;;;;4.20;0.80;;;;;;;13.26;82.20;100603.42;111398;1204;61524;-81
2021/08/27 00:29:53;;;;;;;1.80;0.70;;;;;;;13.23;82.47;100598.73;111467;1195;61030;-81
2021/08/27 00:32:19;;;;;;;4.20;0.90;;;;;;;13.20;82.44;100599.48;111429;1195;61014;-81
2021/08/27 00:34:46;;;;;;;2.50;0.90;;;;;;;13.17;82.39;100595.45;111332;1203;60969;-81
2021/08/27 00:37:13;;;;;;;2.70;0.90;;;;;;;13.14;82.26;100592.98;111438;1203;72452;-81
2021/08/27 00:39:39;;;;;;;4.30;1.10;;;;;;;13.12;82.08;100590.62;111509;1195;62668;-80
2021/08/27 00:42:06;;;;;;;5.20;1.20;;;;;;;13.10;81.81;100591.27;111470;1195;61059;-80
2021/08/27 00:44:32;;;;;;;5.60;1.40;;;;;;;13.09;81.84;100586.26;111492;1203;75297;-81
2021/08/27 00:46:59;;;;;;;13.10;1.40;;;;;;;13.07;82.03;100585.91;111418;1202;71050;-80
2021/08/27 00:49:26;;;;;;;2.60;1.10;;;;;;;13.05;81.87;100592.13;111460;1202;72081;-80
2021/08/27 00:51:52;;;;;;;3.70;0.80;;;;;;;13.05;81.79;100590.08;111423;1196;61030;-81
2021/08/27 00:54:20;;;;;;;3.60;1.20;;;;;;;13.04;81.75;100592.27;111429;1195;61008;-81
2021/08/27 00:56:46;;;;;;;5.20;1.20;;;;;;;13.01;81.67;100590.63;111293;1203;74702;-80
2021/08/27 00:59:13;;;;;;;2.50;0.90;;;;;;;13.01;81.65;100590.21;111412;1202;70945;-81
2021/08/27 01:01:39;;;;;;;2.20;0.80;;;;;;;12.98;81.62;100591.42;111362;1198;72904;-79
2021/08/27 01:04:06;;;;;;;2.00;1.00;;;;;;;12.97;81.52;100595.84;111946;1202;62646;-80
2021/08/27 01:06:50;;;;;;;6.00;1.00;;;;;;;12.95;81.61;100595.74;111729;1195;61053;-79
2021/08/27 01:09:29;;;;;;;8.10;1.80;;;;;;;12.95;81.63;100598.81;111447;1202;74555;-81
2021/08/27 01:12:08;;;;;;;5.30;1.30;;;;;;;12.92;81.94;100598.22;111464;1203;72020;-80
2021/08/27 01:14:42;;;;;;;4.00;1.00;;;;;;;12.90;81.89;100600.69;111413;1195;73884;-80
2021/08/27 01:17:14;;;;;;;3.40;1.30;;;;;;;12.86;82.07;100603.66;111315;1196;62333;-82
2021/08/27 01:19:50;;;;;;;3.40;1.10;;;;;;;12.83;82.09;100602.96;111621;1195;60942;-80
2021/08/27 01:22:25;;;;;;;2.30;0.60;;;;;;;12.82;82.40;100603.77;111414;1202;74741;-81
2021/08/27 01:24:53;;;;;;;3.10;1.00;;;;;;;12.78;82.46;100601.91;111441;1195;70973;-81
2021/08/27 01:27:21;;;;;;;3.70;1.00;;;;;;;12.77;82.46;100600.30;111493;1202;72652;-81
2021/08/27 01:29:56;;;;;;;3.00;1.30;;;;;;;12.76;82.59;100598.70;111546;1200;62083;-81
2021/08/27 01:32:33;;;;;;;3.70;0.80;;;;;;;12.74;82.49;100596.51;111259;1202;61248;-80
2021/08/27 01:35:01;;;;;;;3.30;0.80;;;;;;;12.73;82.63;100597.84;111343;1203;75615;-81
2021/08/27 01:37:28;;;;;;;5.70;1.50;;;;;;;12.72;82.62;100598.73;111458;1202;72107;-79
2021/08/27 01:39:57;;;;;;;5.20;1.20;;;;;;;12.72;82.77;100598.49;111392;1201;73870;-81
2021/08/27 01:42:26;;;;;;;4.40;1.40;;;;;;;12.72;82.68;100592.30;111473;1195;62125;-81
2021/08/27 01:44:55;;;;;;;4.30;1.20;;;;;;;12.72;82.83;100593.70;111405;1195;61098;-81
2021/08/27 01:47:25;;;;;;;6.40;1.40;;;;;;;12.70;83.00;100593.31;111295;1203;74751;-81
2021/08/27 01:49:53;;;;;;;3.70;0.90;;;;;;;12.69;82.94;100593.30;111410;1200;70980;-81
2021/08/27 01:52:21;;;;;;;5.50;1.00;;;;;;;12.68;83.01;100588.88;111432;1201;73539;-81
2021/08/27 01:54:48;;;;;;;3.20;1.00;;;;;;;12.67;83.15;100590.19;111364;1203;61956;-81
2021/08/27 01:57:15;;;;;;;1.80;1.10;;;;;;;12.67;83.04;100591.95;111336;1203;61301;-79
2021/08/27 01:59:43;;;;;;;3.70;1.30;;;;;;;12.66;83.37;100595.59;111332;1202;75635;-80
2021/08/27 02:02:13;;;;;;;3.80;0.80;;;;;;;12.66;83.35;100600.62;111672;1195;71961;-80
2021/08/27 02:04:43;;;;;;;4.90;1.10;;;;;;;12.65;83.38;100598.60;111403;1195;73341;-80
2021/08/27 02:07:11;;;;;;;4.00;1.30;;;;;;;12.65;83.43;100590.99;111389;1201;63532;-80
2021/08/27 02:09:39;;;;;;;1.60;0.80;;;;;;;12.64;83.38;100590.16;111383;1202;61584;-80
2021/08/27 02:12:06;;;;;;;5.90;1.50;;;;;;;12.64;83.51;100593.06;111386;1202;75231;-80
2021/08/27 02:14:35;;;;;;;4.80;1.40;;;;;;;12.62;83.33;100599.11;111575;1201;71965;-81
2021/08/27 02:17:08;;;;;;;4.10;1.20;;;;;;;12.62;83.46;100595.34;111703;1195;72717;-80
2021/08/27 02:19:36;;;;;;;2.20;1.00;;;;;;;12.62;83.61;100594.85;111448;1202;61774;-80
2021/08/27 02:22:06;;;;;;;6.10;1.40;;;;;;;12.62;83.68;100592.92;111423;1201;60986;-80
2021/08/27 02:24:45;;;;;;;2.40;0.80;;;;;;;12.61;83.55;100596.40;111240;1202;74554;-81
2021/08/27 02:27:12;;;;;;;2.90;0.70;;;;;;;12.61;83.71;100599.63;111361;1194;72412;-81
2021/08/27 02:29:41;;;;;;;4.50;1.30;;;;;;;12.60;83.62;100600.80;111351;1195;73963;-80
2021/08/27 02:32:10;;;;;;;4.90;1.30;;;;;;;12.58;83.88;100598.03;111628;1202;61856;-81
2021/08/27 02:34:42;;;;;;;3.40;1.10;;;;;;;12.57;84.06;100594.02;111598;1195;61611;-81
2021/08/27 02:37:11;;;;;;;3.00;1.20;;;;;;;12.57;83.79;100592.83;111524;1195;74737;-81
2021/08/27 02:39:38;;;;;;;3.90;0.90;;;;;;;12.57;83.84;100592.80;112750;1202;71403;-81
2021/08/27 02:42:05;;;;;;;3.70;1.30;;;;;;;12.57;83.94;100594.35;111768;1201;72536;-81
2021/08/27 02:44:32;;;;;;;3.90;0.80;;;;;;;12.57;83.85;100595.25;111658;1196;62066;-81
2021/08/27 02:46:58;;;;;;;2.90;1.50;;;;;;;12.58;83.85;100597.88;111369;1202;61628;-80
2021/08/27 02:49:25;;;;;;;2.70;0.90;;;;;;;12.57;83.89;100594.59;111260;1202;76607;-81
2021/08/27 02:52:07;;;;;;;4.30;1.20;;;;;;;12.57;83.81;100596.85;111336;1202;61098;-81
2021/08/27 02:55:04;;;;;;;6.00;1.00;;;;;;;12.57;83.88;100591.98;111069;1196;72653;-82
2021/08/27 02:57:39;;;;;;;5.30;1.00;;;;;;;12.56;83.78;100594.73;111449;1202;61827;-82
2021/08/27 03:00:06;;;;;;;;;;;;;;;12.54;84.04;100590.55;111536;1201;61082;-80
2021/08/27 03:02:33;;;;;;;4.20;1.20;;;;;;;12.53;84.06;100588.95;111444;1202;75952;-81
2021/08/27 03:05:07;;;;;;;2.40;0.70;;;;;;;12.51;83.97;100584.02;111909;1202;71697;-80
2021/08/27 03:07:37;;;;;;;6.40;1.20;;;;;;;12.50;84.20;100584.17;111411;1202;72497;-81
2021/08/27 03:10:23;;;;;;;2.30;1.00;;;;;;;12.50;84.06;100583.10;111298;1202;62426;-81
2021/08/27 03:13:09;;;;;;;5.70;1.10;;;;;;;12.49;84.38;100582.65;111414;1201;62217;-82
2021/08/27 03:15:56;;;;;;;3.30;1.00;;;;;;;12.48;84.18;100576.79;111616;1202;76030;-81
2021/08/27 03:18:30;;;;;;;6.40;0.80;;;;;;;12.48;84.49;100577.64;111211;1195;72125;-80
2021/08/27 03:21:06;;;;;;;5.80;0.90;;;;;;;12.47;84.43;100577.64;111442;1195;72765;-81
2021/08/27 03:23:36;;;;;;;11.30;2.00;;;;;;;12.45;84.51;100577.45;111461;1203;60969;-82
2021/08/27 03:26:07;;;;;;;3.50;1.20;;;;;;;12.44;84.78;100575.84;111980;1194;61009;-81
2021/08/27 03:28:41;;;;;;;3.90;1.10;;;;;;;12.44;84.68;100582.44;111286;1201;75591;-80
2021/08/27 03:31:09;;;;;;;7.10;1.20;;;;;;;12.43;84.68;100580.52;111495;1195;71973;-80
2021/08/27 03:33:36;;;;;;;4.00;0.90;;;;;;;12.42;84.76;100581.15;111594;1202;72541;-80
2021/08/27 03:36:04;;;;;;;5.30;0.80;;;;;;;12.41;84.73;100581.26;111412;1202;61624;-81
2021/08/27 03:38:31;;;;;;;3.30;1.00;;;;;;;12.41;84.69;100577.45;111353;1202;61357;-80
2021/08/27 03:40:58;;;;;;;2.50;1.30;;;;;;;12.41;84.60;100575.85;111142;1197;74657;-80
2021/08/27 03:43:25;;;;;;;4.50;1.00;;;;;;;12.41;84.53;100576.05;111464;1202;72195;-81
2021/08/27 03:45:53;;;;;;;5.50;1.40;;;;;;;12.38;84.86;100574.20;111408;1202;71981;-80
2021/08/27 03:48:22;;;;;;;4.40;1.20;;;;;;;12.37;84.91;100570.70;111477;1202;61925;-81
2021/08/27 03:50:50;;;;;;;6.30;1.20;;;;;;;12.35;85.14;100563.27;111327;1202;60998;-80
2021/08/27 03:53:18;;;;;;;4.80;1.00;;;;;;;12.34;84.97;100560.03;111356;1202;74743;-79
2021/08/27 03:55:50;;;;;;;3.60;1.20;;;;;;;12.32;85.05;100560.50;111548;1195;70925;-80
2021/08/27 03:58:20;;;;;;;4.80;1.30;;;;;;;12.30;85.18;100558.89;111478;1202;73607;-81
2021/08/27 04:00:49;;;;;;;5.90;0.90;;;;;;;12.30;85.05;100555.44;111406;1195;63052;-81
2021/08/27 04:03:20;;;;;;;3.20;0.80;;;;;;;12.29;85.04;100555.33;111460;1195;61086;-81
2021/08/27 04:06:07;;;;;;;2.80;1.00;;;;;;;12.27;85.26;100563.47;111570;1195;74619;-83
2021/08/27 04:08:36;;;;;;;4.60;1.10;;;;;;;12.23;85.40;100556.56;111384;1201;71972;-80
2021/08/27 04:11:05;;;;;;;5.10;1.10;;;;;;;12.22;85.48;100555.09;111555;1201;72222;-79
2021/08/27 04:13:31;;;;;;;5.20;1.10;;;;;;;12.20;85.72;100554.25;111530;1202;61818;-80
2021/08/27 04:15:58;;;;;;;4.10;1.40;;;;;;;12.18;85.93;100552.46;111440;1201;61396;-80
2021/08/27 04:18:25;;;;;;;2.70;1.00;;;;;;;12.17;86.07;100552.20;111319;1202;75575;-78
2021/08/27 04:20:51;;;;;;;5.60;1.20;;;;;;;12.17;85.90;100555.40;111413;1202;61061;-78
2021/08/27 04:23:18;;;;;;;2.60;1.30;;;;;;;12.16;86.05;100555.72;111208;1202;72820;-78
2021/08/27 04:25:44;;;;;;;6.00;1.00;;;;;;;12.14;86.02;100556.44;111231;1201;61860;-80
2021/08/27 04:28:11;;;;;;;5.70;1.00;;;;;;;12.14;86.01;100553.58;111241;1195;61011;-82
2021/08/27 04:30:38;;;;;;;2.80;1.00;;;;;;;12.14;85.83;100551.45;111585;1195;74570;-83
2021/08/27 04:33:05;;;;;;;4.50;1.40;;;;;;;12.16;85.67;100547.58;111618;1203;70854;-83
2021/08/27 04:35:31;;;;;;;4.30;0.90;;;;;;;12.17;85.61;100548.09;111584;1195;74063;-84
2021/08/27 04:37:58;;;;;;;4.20;0.80;;;;;;;12.17;85.77;100548.61;111224;1203;61071;-83
2021/08/27 04:40:24;;;;;;;4.80;1.80;;;;;;;12.18;85.57;100551.49;111234;1195;58995;-85
2021/08/27 04:42:51;;;;;;;2.90;1.20;;;;;;;12.20;85.50;100552.70;111282;1197;75759;-83
2021/08/27 04:45:18;;;;;;;3.50;1.20;;;;;;;12.20;85.36;100555.73;111341;1202;71593;-83
2021/08/27 04:47:45;;;;;;;4.00;1.00;;;;;;;12.21;85.13;100556.95;111430;1202;73870;-84
2021/08/27 04:50:13;;;;;;;3.10;0.80;;;;;;;12.24;85.13;100554.16;111445;1203;61570;-84
2021/08/27 04:52:40;;;;;;;6.40;1.30;;;;;;;12.25;85.22;100554.02;111934;1195;61076;-84
2021/08/27 04:55:07;;;;;;;4.40;1.20;;;;;;;12.27;84.85;100547.58;111612;1202;76909;-83
2021/08/27 04:57:37;;;;;;;4.40;1.10;;;;;;;12.28;84.83;100546.59;111669;1202;70986;-84
2021/08/27 05:00:08;;;;;;;7.50;1.60;;;;;;;12.31;84.65;100549.29;112315;1195;73746;-83
2021/08/27 05:02:36;;;;;;;3.10;0.70;;;;;;;12.33;84.44;100551.27;111565;1202;62869;-81
2021/08/27 05:05:04;;;;;;;4.20;1.00;;;;;;;12.35;84.42;100548.99;111538;1195;61072;-81
2021/08/27 05:07:30;;;;;;;5.10;1.40;;;;;;;12.37;84.35;100549.75;111420;1201;74718;-80
2021/08/27 05:09:57;;;;;;;8.20;1.30;;;;;;;12.38;84.43;100543.41;111390;1201;61060;-80
2021/08/27 05:12:24;;;;;;;3.20;0.90;;;;;;;12.39;84.43;100545.27;111459;1203;73626;-81
2021/08/27 05:14:50;;;;;;;7.00;1.20;;;;;;;12.40;84.37;100540.28;111346;1202;61068;-80
2021/08/27 05:17:17;;;;;;;2.40;1.00;;;;;;;12.44;84.18;100542.65;111405;1202;61413;-81
2021/08/27 05:19:43;;;;;;;5.90;2.10;;;;;;;12.48;84.23;100542.39;111314;1203;61085;-80
2021/08/27 05:22:10;;;;;;;2.20;0.90;;;;;;;12.50;83.80;100545.73;111471;1195;61085;-79
2021/08/27 05:24:36;;;;;;;4.70;1.70;;;;;;;12.52;83.80;100549.48;111422;1196;74027;-80
2021/08/27 05:27:03;;;;;;;2.10;0.70;;;;;;;12.55;83.94;100546.92;111378;1202;61943;-71
2021/08/27 05:29:30;;;;;;;1.80;1.00;;;;;;;12.59;83.86;100554.08;111054;1196;61144;-70
2021/08/27 05:31:56;;;;;;;3.60;1.10;;;;;;;12.63;83.71;100552.44;111160;1202;61098;-74
2021/08/27 05:34:23;;;;;;;3.50;1.00;;;;;;;12.66;83.79;100556.39;111015;1202;61092;-71
2021/08/27 05:36:49;;;;;;;5.00;0.80;;;;;;;12.69;83.61;100559.40;110896;1202;60996;-74
2021/08/27 05:39:16;;;;;;;5.30;1.80;;;;;;;12.71;83.57;100561.13;110963;1202;61756;-73
2021/08/27 05:41:44;;;;;;;2.40;1.00;;;;;;;12.72;83.85;100558.48;111155;1202;61186;-72
2021/08/27 05:44:11;;;;;;;3.40;0.70;;;;;;;12.73;83.81;100557.14;111123;1201;74631;-71
2021/08/27 05:46:37;;;;;;;4.80;1.60;;;;;;;12.74;84.23;100554.33;110773;1202;72134;-73
2021/08/27 05:49:04;;;;;;;5.80;1.60;;;;;;;12.77;84.25;100551.20;111037;1202;61082;-75
2021/08/27 05:51:30;;;;;;;4.30;1.10;;;;;;;12.79;84.32;100552.16;111193;1202;61690;-79
2021/08/27 05:53:57;;;;;;;3.00;0.80;;;;;;;12.80;84.49;100557.66;111442;1201;60981;-79
2021/08/27 05:56:24;;;;;;;3.60;0.90;;;;;;;12.83;84.63;100555.67;111430;1202;60981;-80
2021/08/27 05:58:51;;;;;;;2.20;0.80;;;;;;;12.87;84.43;100553.08;111768;1201;72668;-80
2021/08/27 06:01:17;;;;;;;2.20;1.00;;;;;;;12.92;84.46;100554.59;111555;1202;61136;-80
2021/08/27 06:03:44;;;;;;;2.20;1.10;;;;;;;12.97;84.27;100556.23;111585;1198;62103;-77
2021/08/27 06:06:10;;;;;;;6.70;1.20;;;;;;;12.99;84.45;100559.02;111242;1202;61060;-73
2021/08/27 06:08:37;;;;;;;2.90;0.90;;;;;;;13.03;84.52;100554.82;111093;1201;61060;-72
2021/08/27 06:11:04;;;;;;;7.00;1.40;;;;;;;13.03;84.70;100552.58;111023;1202;61088;-75
2021/08/27 06:13:30;;;;;;;6.20;1.40;;;;;;;13.03;84.68;100559.73;110735;1203;61105;-73
2021/08/27 06:15:57;;;;;;;3.90;1.40;;;;;;;13.02;84.97;100557.11;110947;1202;62241;-74
2021/08/27 06:18:23;;;;;;;6.90;2.10;;;;;;;13.03;85.30;100555.08;111044;1202;61086;-75
2021/08/27 06:20:50;;;;;;;3.10;1.10;;;;;;;13.03;85.54;100557.05;111225;1195;61809;-73
2021/08/27 06:23:18;;;;;;;3.90;1.00;;;;;;;13.03;85.77;100561.55;111222;1202;72005;-75
2021/08/27 06:25:46;;;;;;;6.80;1.30;;;;;;;13.04;85.92;100552.86;111299;1194;74321;-75
2021/08/27 06:28:13;;;;;;;9.40;2.10;;;;;;;13.05;85.94;100550.09;111142;1201;61597;-74
2021/08/27 06:30:40;;;;;;;4.20;1.20;;;;;;;13.09;85.93;100549.63;114666;1195;61250;-74
2021/08/27 06:33:08;;;;;;;5.30;1.20;;;;;;;13.10;86.47;100551.77;111375;1201;74502;-76
2021/08/27 06:35:35;;;;;;;3.60;1.40;;;;;;;13.08;87.47;100550.57;111363;1195;70904;-77
2021/08/27 06:38:22;;;;;;;6.30;1.70;;;;;;;13.04;88.10;100549.27;111094;1203;72385;-76
2021/08/27 06:40:52;;;;;;;4.40;1.70;;;;;;;12.94;89.48;100557.72;111237;1201;63200;-76
2021/08/27 06:43:18;;;;;;;2.30;1.80;;;;;;;12.87;90.37;100553.77;111167;1195;61079;-77
2021/08/27 06:45:45;;;;;;;4.10;1.20;;;;;;;12.78;91.75;100556.73;111073;1203;77483;-78
2021/08/27 06:48:12;;;;;;;3.70;1.00;;;;;;;12.69;92.98;100553.25;111118;1202;71933;-75
2021/08/27 06:50:38;;;;;;;5.90;1.60;;;;;;;12.61;94.30;100547.42;110988;1195;73674;-78
2021/08/27 06:53:06;;;;;;;6.70;1.70;;;;;;;12.58;94.78;100547.31;111064;1201;61988;-76
2021/08/27 06:55:35;;;;;;;3.90;1.20;;;;;;;12.58;95.26;100540.06;111057;1202;61416;-76
2021/08/27 06:58:02;;;;;;;5.00;1.70;;;;;;;12.59;95.49;100538.48;111190;1202;74733;-76
2021/08/27 07:00:29;;;;;;;6.70;2.50;;;;;;;12.63;95.58;100534.88;111154;1202;70950;-76
2021/08/27 07:02:56;;;;;;;4.50;1.70;;;;;;;12.71;95.64;100535.26;111348;1195;72580;-76
2021/08/27 07:05:26;;;;;;;6.50;1.70;;;;;;;12.80;95.23;100533.69;111126;1201;61682;-76
2021/08/27 07:07:53;;;;;;;6.60;1.30;;;;;;;12.90;94.47;100528.52;111351;1196;61348;-76
2021/08/27 07:10:20;;;;;;;2.00;1.10;;;;;;;13.00;93.72;100533.48;111205;1202;75686;-76
2021/08/27 07:12:51;;;;;;;3.30;1.70;;;;;;;13.09;92.77;100529.84;111407;1195;71521;-76
2021/08/27 07:15:19;;;;;;;11.60;3.30;;;;;;;13.15;92.37;100533.36;111347;1202;73605;-76
2021/08/27 07:17:47;;;;;;;3.70;1.40;;;;;;;13.17;91.64;100542.38;111302;1195;63750;-75
2021/08/27 07:20:14;;;;;;;5.70;2.10;;;;;;;13.17;91.23;100531.32;111257;1201;61408;-76
2021/08/27 07:22:42;;;;;;;7.60;1.20;;;;;;;13.17;91.85;100533.28;111242;1196;75528;-75
2021/08/27 07:25:09;;;;;;;3.90;1.20;;;;;;;13.18;91.95;100540.71;111336;1201;71414;-76
2021/08/27 07:27:37;;;;;;;8.40;2.80;;;;;;;13.17;92.75;100534.73;111184;1201;73876;-76
2021/08/27 07:30:09;;;;;;;3.90;1.30;;;;;;;13.15;93.32;100532.13;111530;1201;61809;-75
2021/08/27 07:32:36;;;;;;;3.10;1.40;;;;;;;13.12;93.85;100544.85;111202;1202;61697;-79
2021/08/27 07:35:04;;;;;;;4.90;1.40;;;;;;;13.03;94.42;100541.59;110997;1202;75909;-80
2021/08/27 07:37:32;;;;;;;3.50;1.50;;;;;;;12.97;95.33;100538.88;111833;1195;71110;-79
2021/08/27 07:39:59;;;;;;;4.30;1.60;;;;;;;12.89;96.56;100535.27;111219;1199;72462;-78
2021/08/27 07:42:25;;;;;;;2.90;1.30;;;;;;;12.82;97.47;100533.34;111256;1202;63121;-78
2021/08/27 07:44:52;;;;;;;4.30;1.40;;;;;;;12.77;98.44;100535.55;111417;1202;61586;-79
2021/08/27 07:47:18;;;;;;;4.30;1.60;;;;;;;12.73;99.13;100536.95;111272;1196;61032;-79
2021/08/27 07:49:45;;;;;;;3.80;1.80;;;;;;;12.70;99.44;100535.33;111219;1202;61083;-78
2021/08/27 07:52:11;;;;;;;6.40;1.60;;;;;;;12.66;99.99;100538.17;111220;1202;61282;-74
2021/08/27 07:54:38;;;;;;;5.60;2.10;;;;;;;12.58;100.00;100541.06;111182;1202;61015;-74
2021/08/27 07:57:04;;;;;;;2.90;1.50;;;;;;;12.55;100.00;100533.00;111156;1202;61736;-74
2021/08/27 07:59:31;;;;;;;3.10;1.60;;;;;;;12.55;100.00;100531.20;111223;1201;61105;-78
2021/08/27 08:01:58;;;;;;;7.00;2.30;;;;;;;12.56;100.00;100534.45;111227;1201;61088;-76
2021/08/27 08:04:24;;;;;;;2.30;1.30;;;;;;;12.57;100.00;100530.06;111163;1201;72889;-74
2021/08/27 08:06:51;;;;;;;3.20;1.80;;;;;;;12.59;100.00;100528.94;110919;1202;61451;-74
2021/08/27 08:09:19;;;;;;;7.30;1.50;;;;;;;12.63;100.00;100526.27;111615;1202;61042;-74
2021/08/27 08:11:46;;;;;;;2.80;1.20;;;;;;;12.64;100.00;100531.98;111068;1201;75722;-74
2021/08/27 08:14:12;;;;;;;6.10;1.60;;;;;;;12.62;100.00;100535.94;110927;1202;61008;-74
2021/08/27 08:16:39;;;;;;;4.30;1.20;;;;;;;12.63;100.00;100533.73;111057;1195;61080;-74
2021/08/27 08:19:05;;;;;;;3.40;1.20;;;;;;;12.62;100.00;100531.36;111179;1201;61849;-75
2021/08/27 08:21:32;;;;;;;4.60;1.00;;;;;;;12.60;100.00;100538.33;110931;1202;61000;-76
2021/08/27 08:23:58;;;;;;;7.10;1.40;;;;;;;12.58;100.00;100537.73;111018;1201;61700;-76
2021/08/27 08:26:25;;;;;;;3.80;1.20;;;;;;;12.58;100.00;100536.67;111170;1201;61140;-75
2021/08/27 08:28:54;;;;;;;2.80;1.20;;;;;;;12.60;100.00;100539.68;111207;1201;72441;-73
2021/08/27 08:31:21;;;;;;;2.10;1.20;;;;;;;12.64;100.00;100542.06;111222;1201;63098;-73
2021/08/27 08:33:50;;;;;;;3.00;1.50;;;;;;;12.68;100.00;100539.66;111230;1201;61112;-75
2021/08/27 08:36:18;;;;;;;4.30;1.70;;;;;;;12.74;100.00;100541.56;111220;1202;75695;-73
2021/08/27 08:38:46;;;;;;;5.50;1.40;;;;;;;12.80;100.00;100541.39;111264;1202;72436;-74
2021/08/27 08:41:17;;;;;;;3.20;1.00;;;;;;;12.85;100.00;100537.22;111282;1203;73795;-76
2021/08/27 08:43:46;;;;;;;3.80;1.40;;;;;;;12.88;100.00;100547.67;111232;1201;62922;-74
2021/08/27 08:46:13;;;;;;;3.10;1.10;;;;;;;12.92;100.00;100546.65;111184;1201;61133;-73
2021/08/27 08:48:45;;;;;;;3.10;1.00;;;;;;;12.95;100.00;100548.46;111293;1195;74618;-73
2021/08/27 08:51:12;;;;;;;2.20;1.00;;;;;;;13.00;100.00;100548.08;111219;1202;71424;-72
2021/08/27 08:53:40;;;;;;;1.90;1.00;;;;;;;13.06;100.00;100545.91;111264;1202;73135;-72
2021/08/27 08:56:09;;;;;;;2.40;1.00;;;;;;;13.10;100.00;100552.41;111166;1202;61854;-72
2021/08/27 08:58:36;;;;;;;2.90;0.90;;;;;;;13.15;100.00;100549.55;111240;1201;61003;-75
2021/08/27 09:01:03;;;;;;;2.40;0.90;;;;;;;13.22;100.00;100549.30;111119;1202;61188;-75
2021/08/27 09:03:30;;;;;;;3.10;1.10;;;;;;;13.31;100.00;100553.02;111458;1202;68612;-74
2021/08/27 09:05:57;;;;;;;2.20;0.50;;;;;;;13.37;100.00;100554.42;111166;1202;72692;-74
2021/08/27 09:08:36;;;;;;;2.20;1.30;;;;;;;13.42;100.00;100547.56;111096;1202;62966;-73
2021/08/27 09:11:14;;;;;;;1.60;0.80;;;;;;;13.49;100.00;100557.67;111280;1195;61072;-73
2021/08/27 09:13:41;;;;;;;3.30;0.90;;;;;;;13.53;100.00;100554.34;111162;1202;74935;-75
2021/08/27 09:16:09;;;;;;;3.20;0.70;;;;;;;13.57;100.00;100555.26;111246;1201;70533;-76
2021/08/27 09:18:48;;;;;;;1.40;0.80;;;;;;;13.56;100.00;100555.02;111066;1202;72623;-75
2021/08/27 09:21:40;;;;;;;4.60;1.10;;;;;;;13.53;99.97;100560.40;110927;1202;61880;-73
2021/08/27 09:24:29;;;;;;;4.50;1.10;;;;;;;13.50;100.00;100558.14;111011;1196;61082;-71
2021/08/27 09:27:01;;;;;;;2.30;1.20;;;;;;;13.53;100.00;100567.66;111091;1202;75699;-72
2021/08/27 09:29:41;;;;;;;1.60;0.90;;;;;;;13.59;100.00;100566.89;110964;1201;70936;-73
2021/08/27 09:32:28;;;;;;;3.70;1.00;;;;;;;13.62;99.99;100569.34;110904;1197;73536;-72
2021/08/27 09:35:07;;;;;;;3.10;0.90;;;;;;;13.70;100.00;100567.40;111596;1201;62972;-73
2021/08/27 09:37:43;;;;;;;1.90;0.90;;;;;;;13.74;99.99;100570.92;111053;1203;61280;-73
2021/08/27 09:40:13;;;;;;;1.90;1.00;;;;;;;13.75;99.42;100568.53;111249;1202;74980;-73
2021/08/27 09:42:49;;;;;;;2.40;0.90;;;;;;;13.78;99.70;100576.42;111059;1195;72427;-73
2021/08/27 09:45:33;;;;;;;3.00;0.80;;;;;;;13.84;99.66;100579.80;111034;1203;72837;-74
2021/08/27 09:48:02;;;;;;;1.40;0.70;;;;;;;13.89;99.41;100581.05;111070;1195;63456;-74
2021/08/27 09:50:31;;;;;;;3.00;0.90;;;;;;;13.93;98.99;100580.98;110958;1202;61096;-76
2021/08/27 09:53:04;;;;;;;2.40;0.90;;;;;;;13.90;98.49;100582.41;111568;1195;74217;-74
2021/08/27 09:55:33;;;;;;;1.50;0.70;;;;;;;13.89;98.49;100583.80;111178;1202;70973;-75
2021/08/27 09:58:05;;;;;;;2.30;0.90;;;;;;;13.91;98.70;100585.83;113325;1195;72553;-74
2021/08/27 10:00:37;;;;;;;2.60;1.20;;;;;;;13.95;98.47;100582.88;110937;1202;63674;-74
2021/08/27 10:03:20;;;;;;;2.50;1.10;;;;;;;14.04;98.43;100585.48;110971;1202;61047;-74
2021/08/27 10:05:48;;;;;;;2.90;0.90;;;;;;;14.19;98.22;100585.42;111229;1202;73556;-75
2021/08/27 10:08:22;;;;;;;3.90;1.40;;;;;;;14.35;97.43;100578.80;110867;1198;71101;-73
2021/08/27 10:11:10;;;;;;;4.50;1.20;;;;;;;14.52;96.54;100581.70;111440;1195;73509;-75
2021/08/27 10:13:37;;;;;;;2.10;1.10;;;;;;;14.65;95.51;100581.30;110996;1196;63031;-75
2021/08/27 10:16:04;;;;;;;4.80;1.20;;;;;;;14.85;95.17;100580.65;111013;1195;61068;-73
2021/08/27 10:18:30;;;;;;;4.80;1.40;;;;;;;15.11;94.26;100584.08;111011;1201;73696;-75
2021/08/27 10:20:57;;;;;;;3.50;1.30;;;;;;;15.44;93.57;100580.45;110975;1202;61108;-75
2021/08/27 10:23:24;;;;;;;3.10;1.50;;;;;;;15.83;92.64;100585.31;110811;1195;61059;-76
2021/08/27 10:25:52;;;;;;;4.10;1.30;;;;;;;16.29;90.40;100583.97;110978;1202;62937;-76
2021/08/27 10:28:19;;;;;;;2.40;1.10;;;;;;;16.68;88.81;100577.36;111163;1195;61765;-76
2021/08/27 10:30:54;;;;;;;2.50;1.30;;;;;;;16.74;84.90;100577.18;111170;1201;74656;-74
2021/08/27 10:33:40;;;;;;;2.20;0.90;;;;;;;16.65;84.01;100570.35;111106;1203;71392;-74
2021/08/27 10:36:27;;;;;;;2.30;1.10;;;;;;;16.48;83.86;100578.90;111081;1195;72562;-75
2021/08/27 10:38:57;;;;;;;3.60;1.60;;;;;;;16.37;84.78;100581.37;111195;1202;61678;-76
2021/08/27 10:41:37;;;;;;;2.10;1.00;;;;;;;16.37;85.31;100580.17;111438;1201;61187;-77
2021/08/27 10:44:14;;;;;;;3.30;1.40;;;;;;;16.50;85.16;100574.36;111161;1202;74387;-78
2021/08/27 10:47:05;;;;;;;3.20;0.90;;;;;;;16.75;84.99;100574.71;110877;1203;70985;-76
2021/08/27 10:49:46;;;;;;;2.10;1.10;;;;;;;16.90;83.58;100572.84;110922;1202;72809;-75
2021/08/27 10:52:35;;;;;;;2.30;1.00;;;;;;;16.84;83.17;100572.73;111104;1202;61602;-76
2021/08/27 10:55:01;;;;;;;2.30;0.90;;;;;;;16.84;82.24;100574.05;111006;1204;61120;-78
2021/08/27 10:57:29;;;;;;;2.10;1.00;;;;;;;16.85;81.57;100576.11;111035;1202;61061;-78
2021/08/27 10:59:59;;;;;;;3.30;1.00;;;;;;;16.92;81.91;100574.56;111132;1202;71228;-77
2021/08/27 11:02:28;;;;;;;1.70;0.60;;;;;;;16.89;81.84;100569.33;111278;1195;72502;-78
2021/08/27 11:04:55;;;;;;;2.10;1.30;;;;;;;16.88;81.46;100572.11;111556;1201;61704;-77
2021/08/27 11:07:26;;;;;;;1.20;0.50;;;;;;;16.93;81.42;100567.41;111196;1203;61089;-77
2021/08/27 11:10:07;;;;;;;2.60;0.60;;;;;;;17.04;79.98;100566.97;111291;1195;74068;-78
2021/08/27 11:13:00;;;;;;;0.90;0.60;;;;;;;17.06;80.09;100568.20;111233;1202;74032;-78
2021/08/27 11:15:30;;;;;;;1.80;0.50;;;;;;;17.29;80.15;100566.44;111269;1200;72518;-77
2021/08/27 11:18:07;;;;;;;1.20;0.60;;;;;;;17.56;79.74;100561.21;111570;1195;61622;-77
2021/08/27 11:20:34;;;;;;;2.00;0.60;;;;;;;17.86;78.43;100560.85;111328;1202;61064;-76
2021/08/27 11:23:01;;;;;;;3.30;0.70;;;;;;;18.09;78.14;100562.70;111330;1202;74815;-76
2021/08/27 11:25:27;;;;;;;1.40;0.80;;;;;;;18.25;76.25;100563.55;111327;1201;61087;-78
2021/08/27 11:28:18;;;;;;;1.40;0.60;;;;;;;18.41;75.36;100561.86;111253;1202;73702;-75